createdAt,value
2018-11-26T00:01:35.579Z,8.30
2018-11-26T00:06:39.931Z,9.23
2018-11-26T00:11:44.853Z,9.80
2018-11-26T00:16:48.426Z,9.07
2018-11-26T00:21:52.304Z,9.20
2018-11-26T00:26:55.942Z,9.30
2018-11-26T00:32:00.338Z,9.00
2018-11-26T00:37:03.897Z,9.40
2018-11-26T00:42:07.752Z,8.70
2018-11-26T00:47:11.350Z,8.60
2018-11-26T00:52:15.416Z,8.97
2018-11-26T00:57:18.993Z,8.50
2018-11-26T01:02:22.574Z,8.90
2018-11-26T01:07:26.119Z,9.90
2018-11-26T01:12:29.690Z,9.80
2018-11-26T01:17:33.256Z,10.07
2018-11-26T01:22:45.445Z,9.80
2018-11-26T01:27:49.011Z,9.67
2018-11-26T01:32:53.210Z,9.10
2018-11-26T01:37:56.801Z,9.20
2018-11-26T01:43:00.421Z,8.57
2018-11-26T01:48:05.141Z,9.47
2018-11-26T01:53:08.755Z,9.00
2018-11-26T01:58:12.303Z,9.10
2018-11-26T02:03:15.909Z,8.40
2018-11-26T02:08:19.478Z,8.00
2018-11-26T02:13:23.287Z,8.70
2018-11-26T02:18:26.831Z,8.43
2018-11-26T02:23:30.608Z,8.17
2018-11-26T02:28:34.164Z,8.37
2018-11-26T02:33:37.719Z,8.20
2018-11-26T02:38:41.301Z,8.10
2018-11-26T02:43:44.856Z,8.17
2018-11-26T02:48:48.842Z,8.17
2018-11-26T02:53:52.425Z,8.60
2018-11-26T02:58:56.068Z,7.70
2018-11-26T03:03:59.642Z,7.83
2018-11-26T03:09:03.330Z,8.37
2018-11-26T03:14:07.127Z,7.70
2018-11-26T03:19:10.749Z,8.30
2018-11-26T03:24:14.360Z,7.93
2018-11-26T03:29:17.913Z,9.13
2018-11-26T03:34:21.538Z,9.20
2018-11-26T03:39:25.084Z,8.40
2018-11-26T03:44:28.659Z,8.87
2018-11-26T03:49:32.552Z,9.27
2018-11-26T03:54:36.154Z,9.10
2018-11-26T03:59:40.049Z,8.70
2018-11-26T04:04:43.605Z,9.13
2018-11-26T04:09:47.190Z,10.00
2018-11-26T04:14:50.763Z,10.20
2018-11-26T04:19:54.288Z,10.10
2018-11-26T04:24:57.856Z,9.30
2018-11-26T04:30:01.425Z,9.40
2018-11-26T04:35:05.486Z,8.10
2018-11-26T04:40:10.353Z,8.80
2018-11-26T04:45:13.940Z,7.83
2018-11-26T04:50:17.577Z,8.40
2018-11-26T04:55:21.147Z,9.27
2018-11-26T05:00:24.720Z,10.27
2018-11-26T05:05:28.320Z,9.50
2018-11-26T05:10:31.919Z,8.83
2018-11-26T05:15:36.264Z,9.80
2018-11-26T05:20:39.801Z,8.97
2018-11-26T05:25:43.376Z,9.23
2018-11-26T05:30:47.646Z,9.00
2018-11-26T05:35:51.196Z,9.90
2018-11-26T05:40:55.062Z,8.97
2018-11-26T05:45:58.899Z,10.00
2018-11-26T05:51:02.504Z,9.70
2018-11-26T05:56:06.295Z,8.57
2018-11-26T06:01:09.848Z,10.77
2018-11-26T06:06:13.436Z,10.60
2018-11-26T06:11:17.035Z,10.53
2018-11-26T06:16:20.924Z,9.87
2018-11-26T06:21:24.558Z,11.57
2018-11-26T06:26:28.193Z,11.30
2018-11-26T06:31:31.781Z,10.87
2018-11-26T06:36:35.353Z,10.80
2018-11-26T06:41:38.933Z,11.30
2018-11-26T06:46:42.608Z,11.13
2018-11-26T06:51:46.253Z,11.87
2018-11-26T06:56:51.046Z,12.60
2018-11-26T07:01:54.675Z,12.70
2018-11-26T07:06:58.237Z,11.30
2018-11-26T07:12:02.182Z,12.43
2018-11-26T07:17:06.184Z,12.27
2018-11-26T07:22:09.757Z,12.73
2018-11-26T07:27:13.476Z,11.83
2018-11-26T07:32:17.720Z,11.77
2018-11-26T07:37:21.682Z,11.83
2018-11-26T07:42:25.263Z,11.80
2018-11-26T07:47:29.102Z,12.13
2018-11-26T07:52:32.773Z,12.30
2018-11-26T07:57:36.381Z,12.00
2018-11-26T08:02:39.960Z,11.10
2018-11-26T08:07:43.615Z,11.83
2018-11-26T08:12:48.476Z,11.83
2018-11-26T08:17:52.360Z,11.57
2018-11-26T08:22:55.940Z,10.60
2018-11-26T08:27:59.732Z,11.63
2018-11-26T08:33:03.771Z,11.60
2018-11-26T08:38:07.942Z,11.40
2018-11-26T08:44:18.540Z,12.50
2018-11-26T08:49:28.272Z,10.47
2018-11-26T08:54:31.922Z,10.73
2018-11-26T08:59:35.491Z,10.83
2018-11-26T09:04:44.817Z,11.27
2018-11-26T09:09:49.310Z,11.23
2018-11-26T09:14:53.624Z,10.00
2018-11-26T09:19:57.269Z,11.00
2018-11-26T09:25:01.506Z,10.30
2018-11-26T09:30:09.347Z,10.70
2018-11-26T09:35:15.372Z,11.33
2018-11-26T09:40:19.169Z,10.63
2018-11-26T09:45:22.786Z,7.80
2018-11-26T09:50:26.493Z,7.47
2018-11-26T09:55:30.327Z,6.17
2018-11-26T10:00:33.909Z,6.67
2018-11-26T10:05:37.714Z,6.60
2018-11-26T10:10:41.272Z,6.33
2018-11-26T10:15:45.208Z,7.00
2018-11-26T10:20:48.796Z,6.60
2018-11-26T10:25:52.447Z,5.80
2018-11-26T10:30:56.017Z,5.97
2018-11-26T10:36:00.017Z,6.90
2018-11-26T10:41:03.573Z,6.77
2018-11-26T10:46:07.916Z,6.33
2018-11-26T10:51:11.751Z,6.20
2018-11-26T10:56:16.299Z,6.63
2018-11-26T11:01:25.751Z,6.07
2018-11-26T11:06:29.399Z,6.20
2018-11-26T11:11:33.516Z,5.63
2018-11-26T11:16:37.074Z,4.93
2018-11-26T11:21:40.668Z,5.27
2018-11-26T11:26:44.561Z,5.63
2018-11-26T11:31:48.142Z,5.30
2018-11-26T11:36:52.423Z,5.23
2018-11-26T11:41:56.019Z,4.90
2018-11-26T11:47:01.499Z,4.70
2018-11-26T11:52:05.114Z,4.80
2018-11-26T11:57:08.674Z,5.33
2018-11-26T12:02:16.051Z,4.90
2018-11-26T12:07:19.269Z,5.20
2018-11-26T12:12:22.847Z,6.87
2018-11-26T12:17:27.179Z,6.57
2018-11-26T12:22:31.190Z,6.60
2018-11-26T12:27:34.940Z,6.10
2018-11-26T12:32:38.500Z,6.63
2018-11-26T12:37:42.442Z,5.20
2018-11-26T12:42:46.546Z,4.40
2018-11-26T12:52:59.305Z,5.10
2018-11-26T12:58:03.370Z,4.50
2018-11-26T13:03:10.627Z,4.77
2018-11-26T13:08:14.252Z,5.30
2018-11-26T13:13:17.930Z,4.80
2018-11-26T13:18:22.710Z,5.00
2018-11-26T13:23:26.609Z,5.07
2018-11-26T13:28:30.178Z,5.17
2018-11-26T13:33:33.800Z,5.33
2018-11-26T13:38:37.373Z,5.87
2018-11-26T13:43:41.599Z,5.43
2018-11-26T13:48:45.185Z,5.57
2018-11-26T13:53:48.729Z,6.20
2018-11-26T13:59:02.325Z,6.03
2018-11-26T14:04:06.380Z,6.30
2018-11-26T14:09:10.647Z,7.10
2018-11-26T14:14:14.516Z,7.00
2018-11-26T14:19:18.368Z,7.37
2018-11-26T14:24:22.223Z,10.60
2018-11-26T14:29:26.129Z,9.17
2018-11-26T14:34:30.941Z,9.77
2018-11-26T14:39:34.857Z,8.57
2018-11-26T14:44:39.146Z,11.10
2018-11-26T14:49:43.088Z,8.57
2018-11-26T14:54:46.753Z,11.47
2018-11-26T14:59:50.396Z,10.20
2018-11-26T15:04:54.203Z,9.40
2018-11-26T15:09:58.415Z,8.23
2018-11-26T15:15:02.054Z,8.90
2018-11-26T15:20:08.476Z,7.87
2018-11-26T15:25:15.229Z,9.50
2018-11-26T15:30:22.321Z,8.90
2018-11-26T15:35:26.179Z,8.70
2018-11-26T15:40:29.987Z,9.23
2018-11-26T15:45:33.858Z,8.57
2018-11-26T15:50:37.512Z,8.83
2018-11-26T15:55:41.162Z,9.30
2018-11-26T16:00:44.892Z,10.00
2018-11-26T16:05:48.615Z,9.10
2018-11-26T16:10:52.483Z,9.20
2018-11-26T16:15:56.349Z,9.20
2018-11-26T16:21:00.019Z,9.17
2018-11-26T16:26:03.873Z,8.83
2018-11-26T16:31:07.530Z,4.87
2018-11-26T16:36:11.214Z,7.93
2018-11-26T16:41:16.206Z,9.23
2018-11-26T16:46:19.750Z,9.20
2018-11-26T16:51:23.427Z,9.40
2018-11-26T16:56:27.058Z,7.87
2018-11-26T17:01:31.195Z,8.67
2018-11-26T17:06:34.796Z,8.80
2018-11-26T17:11:38.918Z,8.30
2018-11-26T17:16:42.549Z,9.00
2018-11-26T17:21:47.838Z,9.37
2018-11-26T17:26:51.772Z,8.47
2018-11-26T17:31:56.354Z,9.33
2018-11-26T17:37:01.574Z,9.60
2018-11-26T17:42:06.982Z,10.40
2018-11-26T17:47:12.596Z,10.23
2018-11-26T17:52:16.974Z,12.60
2018-11-26T17:57:20.593Z,11.77
2018-11-26T18:02:24.918Z,11.83
2018-11-26T18:07:29.004Z,13.10
2018-11-26T18:12:32.616Z,12.80
2018-11-26T18:17:36.296Z,13.20
2018-11-26T18:22:40.628Z,13.90
2018-11-26T18:27:53.670Z,12.87
2018-11-26T18:32:57.692Z,21.80
2018-11-26T18:38:01.334Z,13.87
2018-11-26T18:48:22.927Z,13.43
2018-11-26T18:53:26.742Z,20.47
2018-11-26T18:58:30.333Z,16.03
2018-11-26T19:03:33.949Z,14.00
2018-11-26T19:08:38.392Z,13.60
2018-11-26T19:13:47.015Z,14.40
2018-11-26T19:18:50.589Z,13.07
2018-11-26T19:23:54.181Z,13.13
2018-11-26T19:28:58.087Z,12.23
2018-11-26T19:34:01.705Z,11.60
2018-11-26T19:39:08.395Z,11.53
2018-11-26T19:44:12.906Z,13.17
2018-11-26T19:49:17.879Z,13.87
2018-11-26T19:54:21.801Z,13.27
2018-11-26T19:59:25.853Z,12.57
2018-11-26T20:04:38.411Z,12.50
2018-11-26T20:09:42.035Z,13.43
2018-11-26T20:14:45.676Z,12.70
2018-11-26T20:19:50.146Z,13.80
2018-11-26T20:24:53.724Z,13.87
2018-11-26T20:29:58.273Z,11.90
2018-11-26T20:35:02.375Z,14.80
2018-11-26T20:40:12.032Z,12.20
2018-11-26T20:45:16.935Z,10.57
2018-11-26T20:50:28.348Z,10.83
2018-11-26T20:55:32.109Z,9.73
2018-11-26T21:00:35.972Z,10.30
2018-11-26T21:05:40.666Z,9.30
2018-11-26T21:10:44.752Z,8.93
2018-11-26T21:15:48.749Z,10.00
2018-11-26T21:20:52.582Z,14.17
2018-11-26T21:25:57.886Z,11.83
2018-11-26T21:31:02.202Z,31.67
2018-11-26T21:36:06.392Z,13.20
2018-11-26T21:41:10.785Z,9.77
2018-11-26T21:46:15.366Z,9.20
2018-11-26T21:51:20.048Z,9.73
2018-11-26T21:56:23.871Z,9.40
2018-11-26T22:01:27.468Z,9.00
2018-11-26T22:06:31.476Z,7.70
2018-11-26T22:11:35.851Z,8.10
2018-11-26T22:16:39.428Z,9.50
2018-11-26T22:21:43.359Z,9.00
2018-11-26T22:26:46.986Z,8.90
2018-11-26T22:31:50.593Z,10.20
2018-11-26T22:36:54.200Z,7.40
2018-11-26T22:41:58.084Z,6.00
2018-11-26T22:47:01.698Z,5.03
2018-11-26T22:52:05.327Z,5.23
2018-11-26T22:57:08.923Z,5.30
2018-11-26T23:02:12.535Z,4.70
2018-11-26T23:07:16.142Z,5.60
2018-11-26T23:12:19.728Z,5.30
2018-11-26T23:17:23.299Z,5.73
2018-11-26T23:22:26.849Z,5.90
2018-11-26T23:27:30.429Z,5.33
2018-11-26T23:32:33.986Z,5.63
2018-11-26T23:37:37.553Z,5.23
2018-11-26T23:42:41.208Z,5.83
2018-11-26T23:47:45.667Z,4.30
2018-11-26T23:52:49.929Z,4.60
2018-11-26T23:57:53.596Z,4.77
